Aviation Digital Data Service (ADDS)

Output produced by METARs form (1201 UTC 19 January 2019)
found at http://www.aviationweather.gov/metar/data/
 
METAR text: LFTH 191130Z AUTO 12005KT 080V160 CAVOK 12/03 Q1014 TEMPO SHRA
Conditions at: LFTH (HYERES/LE PALYVE, FR) observed 1130 UTC 19 January 2019
Temperature: 12.0°C (54°F)
Dewpoint: 3.0°C (37°F) [RH = 54%]
Pressure (altimeter): 29.94 inches Hg (1014.0 mb)
Winds: from the ESE (120 degrees) at 6 MPH (5 knots; 2.6 m/s)
Visibility: 6 or more miles (10+ km)
Ceiling: ceiling and visibility are OK
Clouds: unknown
Weather: no significant weather observed at this time

METAR text: LFTH 191100Z AUTO VRB03KT CAVOK 12/05 Q1014 TEMPO SHRA
Conditions at: LFTH (HYERES/LE PALYVE, FR) observed 1100 UTC 19 January 2019
Temperature: 12.0°C (54°F)
Dewpoint: 5.0°C (41°F) [RH = 62%]
Pressure (altimeter): 29.94 inches Hg (1014.0 mb)
Winds: variable direction winds at 3 MPH (3 knots; 1.5 m/s)
Visibility: 6 or more miles (10+ km)
Ceiling: ceiling and visibility are OK
Clouds: unknown
Weather: no significant weather observed at this time

METAR text: LFTH 191030Z AUTO VRB03KT CAVOK 11/04 Q1014 TEMPO SHRA
Conditions at: LFTH (HYERES/LE PALYVE, FR) observed 1030 UTC 19 January 2019
Temperature: 11.0°C (52°F)
Dewpoint: 4.0°C (39°F) [RH = 62%]
Pressure (altimeter): 29.94 inches Hg (1014.0 mb)
Winds: variable direction winds at 3 MPH (3 knots; 1.5 m/s)
Visibility: 6 or more miles (10+ km)
Ceiling: ceiling and visibility are OK
Clouds: unknown
Weather: no significant weather observed at this time

METAR text: LFTH 191000Z AUTO VRB02KT CAVOK 10/04 Q1014 TEMPO SHRA
Conditions at: LFTH (HYERES/LE PALYVE, FR) observed 1000 UTC 19 January 2019
Temperature: 10.0°C (50°F)
Dewpoint: 4.0°C (39°F) [RH = 66%]
Pressure (altimeter): 29.94 inches Hg (1014.0 mb)
Winds: variable direction winds at 2 MPH (2 knots; 1.0 m/s)
Visibility: 6 or more miles (10+ km)
Ceiling: ceiling and visibility are OK
Clouds: unknown
Weather: no significant weather observed at this time

METAR text: LFTH 190930Z AUTO 36003KT CAVOK 07/02 Q1014 TEMPO SHRA BECMG 08010KT
Conditions at: LFTH (HYERES/LE PALYVE, FR) observed 0930 UTC 19 January 2019
Temperature: 7.0°C (45°F)
Dewpoint: 2.0°C (36°F) [RH = 70%]
Pressure (altimeter): 29.94 inches Hg (1014.0 mb)
Winds: from the N (360 degrees) at 3 MPH (3 knots; 1.5 m/s)
Visibility: 6 or more miles (10+ km)
Ceiling: ceiling and visibility are OK
Clouds: unknown
Weather: no significant weather observed at this time

METAR text: LFTH 190900Z AUTO VRB02KT 9999 SCT042 BKN200 06/02 Q1014 NOSIG
Conditions at: LFTH (HYERES/LE PALYVE, FR) observed 0900 UTC 19 January 2019
Temperature: 6.0°C (43°F)
Dewpoint: 2.0°C (36°F) [RH = 75%]
Pressure (altimeter): 29.94 inches Hg (1014.0 mb)
Winds: variable direction winds at 2 MPH (2 knots; 1.0 m/s)
Visibility: 6 or more miles (10+ km)
Ceiling: 20000 feet AGL
Clouds: scattered clouds at 4200 feet AGL
broken clouds at 20000 feet AGL
Weather: no significant weather observed at this time

METAR text: LFTH 190830Z AUTO VRB03KT 9999 FEW043 SCT140 06/01 Q1013 NOSIG
Conditions at: LFTH (HYERES/LE PALYVE, FR) observed 0830 UTC 19 January 2019
Temperature: 6.0°C (43°F)
Dewpoint: 1.0°C (34°F) [RH = 70%]
Pressure (altimeter): 29.91 inches Hg (1013.0 mb)
Winds: variable direction winds at 3 MPH (3 knots; 1.5 m/s)
Visibility: 6 or more miles (10+ km)
Ceiling: at least 12,000 feet AGL
Clouds: few clouds at 4300 feet AGL
scattered clouds at 14000 feet AGL
Weather: no significant weather observed at this time

METAR text: LFTH 190800Z AUTO VRB03KT CAVOK 05/01 Q1013 NOSIG
Conditions at: LFTH (HYERES/LE PALYVE, FR) observed 0800 UTC 19 January 2019
Temperature: 5.0°C (41°F)
Dewpoint: 1.0°C (34°F) [RH = 75%]
Pressure (altimeter): 29.91 inches Hg (1013.0 mb)
Winds: variable direction winds at 3 MPH (3 knots; 1.5 m/s)
Visibility: 6 or more miles (10+ km)
Ceiling: ceiling and visibility are OK
Clouds: unknown
Weather: no significant weather observed at this time

METAR text: LFTH 190730Z AUTO VRB02KT CAVOK 04/00 Q1013 NOSIG
Conditions at: LFTH (HYERES/LE PALYVE, FR) observed 0730 UTC 19 January 2019
Temperature: 4.0°C (39°F)
Dewpoint: 0.0°C (32°F) [RH = 75%]
Pressure (altimeter): 29.91 inches Hg (1013.0 mb)
Winds: variable direction winds at 2 MPH (2 knots; 1.0 m/s)
Visibility: 6 or more miles (10+ km)
Ceiling: ceiling and visibility are OK
Clouds: unknown
Weather: no significant weather observed at this time

METAR text: LFTH 190700Z AUTO VRB03KT CAVOK 03/00 Q1013 TEMPO 4000 RA
Conditions at: LFTH (HYERES/LE PALYVE, FR) observed 0700 UTC 19 January 2019
Temperature: 3.0°C (37°F)
Dewpoint: 0.0°C (32°F) [RH = 81%]
Pressure (altimeter): 29.91 inches Hg (1013.0 mb)
Winds: variable direction winds at 3 MPH (3 knots; 1.5 m/s)
Visibility: 6 or more miles (10+ km)
Ceiling: ceiling and visibility are OK
Clouds: unknown
Weather: no significant weather observed at this time

METAR text: LFTH 190630Z AUTO VRB03KT CAVOK 03/M00 Q1013 TEMPO 4000 RA
Conditions at: LFTH (HYERES/LE PALYVE, FR) observed 0630 UTC 19 January 2019
Temperature: 3.0°C (37°F)
Dewpoint: 0.0°C (32°F) [RH = 81%]
Pressure (altimeter): 29.91 inches Hg (1013.0 mb)
Winds: variable direction winds at 3 MPH (3 knots; 1.5 m/s)
Visibility: 6 or more miles (10+ km)
Ceiling: ceiling and visibility are OK
Clouds: unknown
Weather: no significant weather observed at this time

METAR text: LFTH 190600Z AUTO 32005KT 9999 FEW047 BKN180 03/M00 Q1013 TEMPO 10010KT 4000 RA
Conditions at: LFTH (HYERES/LE PALYVE, FR) observed 0600 UTC 19 January 2019
Temperature: 3.0°C (37°F)
Dewpoint: 0.0°C (32°F) [RH = 81%]
Pressure (altimeter): 29.91 inches Hg (1013.0 mb)
Winds: from the NW (320 degrees) at 6 MPH (5 knots; 2.6 m/s)
Visibility: 6 or more miles (10+ km)
Ceiling: 18000 feet AGL
Clouds: few clouds at 4700 feet AGL
broken clouds at 18000 feet AGL
Weather: no significant weather observed at this time

METAR text: LFTH 190530Z AUTO 31007KT 9999 SCT049 BKN180 BKN220 04/00 Q1013 TEMPO 10010KT 4000 RA
Conditions at: LFTH (HYERES/LE PALYVE, FR) observed 0530 UTC 19 January 2019
Temperature: 4.0°C (39°F)
Dewpoint: 0.0°C (32°F) [RH = 75%]
Pressure (altimeter): 29.91 inches Hg (1013.0 mb)
Winds: from the NW (310 degrees) at 8 MPH (7 knots; 3.6 m/s)
Visibility: 6 or more miles (10+ km)
Ceiling: 18000 feet AGL
Clouds: scattered clouds at 4900 feet AGL
broken clouds at 18000 feet AGL
broken clouds at 22000 feet AGL
Weather: no significant weather observed at this time

METAR text: LFTH 190500Z AUTO 32004KT CAVOK 03/M00 Q1013 TEMPO 10010KT 4000 RA
Conditions at: LFTH (HYERES/LE PALYVE, FR) observed 0500 UTC 19 January 2019
Temperature: 3.0°C (37°F)
Dewpoint: 0.0°C (32°F) [RH = 81%]
Pressure (altimeter): 29.91 inches Hg (1013.0 mb)
Winds: from the NW (320 degrees) at 5 MPH (4 knots; 2.1 m/s)
Visibility: 6 or more miles (10+ km)
Ceiling: ceiling and visibility are OK
Clouds: unknown
Weather: no significant weather observed at this time

METAR text: LFTH 190430Z AUTO 34003KT 320V020 CAVOK 04/M00 Q1013 TEMPO 10010KT 4000 RA
Conditions at: LFTH (HYERES/LE PALYVE, FR) observed 0430 UTC 19 January 2019
Temperature: 4.0°C (39°F)
Dewpoint: 0.0°C (32°F) [RH = 75%]
Pressure (altimeter): 29.91 inches Hg (1013.0 mb)
Winds: from the NNW (340 degrees) at 3 MPH (3 knots; 1.5 m/s)
Visibility: 6 or more miles (10+ km)
Ceiling: ceiling and visibility are OK
Clouds: unknown
Weather: no significant weather observed at this time

METAR text: LFTH 190400Z AUTO 35002KT CAVOK 03/M00 Q1013 NOSIG
Conditions at: LFTH (HYERES/LE PALYVE, FR) observed 0400 UTC 19 January 2019
Temperature: 3.0°C (37°F)
Dewpoint: 0.0°C (32°F) [RH = 81%]
Pressure (altimeter): 29.91 inches Hg (1013.0 mb)
Winds: from the N (350 degrees) at 2 MPH (2 knots; 1.0 m/s)
Visibility: 6 or more miles (10+ km)
Ceiling: ceiling and visibility are OK
Clouds: unknown
Weather: no significant weather observed at this time

METAR text: LFTH 190330Z AUTO 35003KT CAVOK 03/M01 Q1013 NOSIG
Conditions at: LFTH (HYERES/LE PALYVE, FR) observed 0330 UTC 19 January 2019
Temperature: 3.0°C (37°F)
Dewpoint: -1.0°C (30°F) [RH = 75%]
Pressure (altimeter): 29.91 inches Hg (1013.0 mb)
Winds: from the N (350 degrees) at 3 MPH (3 knots; 1.5 m/s)
Visibility: 6 or more miles (10+ km)
Ceiling: ceiling and visibility are OK
Clouds: unknown
Weather: no significant weather observed at this time

METAR text: LFTH 190300Z AUTO 35003KT CAVOK 03/M01 Q1013 NOSIG
Conditions at: LFTH (HYERES/LE PALYVE, FR) observed 0300 UTC 19 January 2019
Temperature: 3.0°C (37°F)
Dewpoint: -1.0°C (30°F) [RH = 75%]
Pressure (altimeter): 29.91 inches Hg (1013.0 mb)
Winds: from the N (350 degrees) at 3 MPH (3 knots; 1.5 m/s)
Visibility: 6 or more miles (10+ km)
Ceiling: ceiling and visibility are OK
Clouds: unknown
Weather: no significant weather observed at this time

METAR text: LFTH 190230Z AUTO VRB02KT CAVOK 04/M01 Q1013 NOSIG
Conditions at: LFTH (HYERES/LE PALYVE, FR) observed 0230 UTC 19 January 2019
Temperature: 4.0°C (39°F)
Dewpoint: -1.0°C (30°F) [RH = 70%]
Pressure (altimeter): 29.91 inches Hg (1013.0 mb)
Winds: variable direction winds at 2 MPH (2 knots; 1.0 m/s)
Visibility: 6 or more miles (10+ km)
Ceiling: ceiling and visibility are OK
Clouds: unknown
Weather: no significant weather observed at this time

METAR text: LFTH 190200Z AUTO 33004KT 300V360 CAVOK 04/M01 Q1013 NOSIG
Conditions at: LFTH (HYERES/LE PALYVE, FR) observed 0200 UTC 19 January 2019
Temperature: 4.0°C (39°F)
Dewpoint: -1.0°C (30°F) [RH = 70%]
Pressure (altimeter): 29.91 inches Hg (1013.0 mb)
Winds: from the NNW (330 degrees) at 5 MPH (4 knots; 2.1 m/s)
Visibility: 6 or more miles (10+ km)
Ceiling: ceiling and visibility are OK
Clouds: unknown
Weather: no significant weather observed at this time

METAR text: LFTH 190130Z AUTO 34003KT 300V020 CAVOK 04/M01 Q1013 NOSIG
Conditions at: LFTH (HYERES/LE PALYVE, FR) observed 0130 UTC 19 January 2019
Temperature: 4.0°C (39°F)
Dewpoint: -1.0°C (30°F) [RH = 70%]
Pressure (altimeter): 29.91 inches Hg (1013.0 mb)
Winds: from the NNW (340 degrees) at 3 MPH (3 knots; 1.5 m/s)
Visibility: 6 or more miles (10+ km)
Ceiling: ceiling and visibility are OK
Clouds: unknown
Weather: no significant weather observed at this time

METAR text: LFTH 190100Z AUTO 31007KT CAVOK 05/M01 Q1013 NOSIG
Conditions at: LFTH (HYERES/LE PALYVE, FR) observed 0100 UTC 19 January 2019
Temperature: 5.0°C (41°F)
Dewpoint: -1.0°C (30°F) [RH = 65%]
Pressure (altimeter): 29.91 inches Hg (1013.0 mb)
Winds: from the NW (310 degrees) at 8 MPH (7 knots; 3.6 m/s)
Visibility: 6 or more miles (10+ km)
Ceiling: ceiling and visibility are OK
Clouds: unknown
Weather: no significant weather observed at this time

METAR text: LFTH 190030Z AUTO 30008KT CAVOK 06/M01 Q1013 NOSIG
Conditions at: LFTH (HYERES/LE PALYVE, FR) observed 0030 UTC 19 January 2019
Temperature: 6.0°C (43°F)
Dewpoint: -1.0°C (30°F) [RH = 61%]
Pressure (altimeter): 29.91 inches Hg (1013.0 mb)
Winds: from the WNW (300 degrees) at 9 MPH (8 knots; 4.1 m/s)
Visibility: 6 or more miles (10+ km)
Ceiling: ceiling and visibility are OK
Clouds: unknown
Weather: no significant weather observed at this time

METAR text: LFTH 190000Z AUTO 30006KT CAVOK 06/M01 Q1014 NOSIG
Conditions at: LFTH (HYERES/LE PALYVE, FR) observed 0000 UTC 19 January 2019
Temperature: 6.0°C (43°F)
Dewpoint: -1.0°C (30°F) [RH = 61%]
Pressure (altimeter): 29.94 inches Hg (1014.0 mb)
Winds: from the WNW (300 degrees) at 7 MPH (6 knots; 3.1 m/s)
Visibility: 6 or more miles (10+ km)
Ceiling: ceiling and visibility are OK
Clouds: unknown
Weather: no significant weather observed at this time

METAR text: LFTH 182330Z AUTO 31005KT CAVOK 05/M01 Q1014 NOSIG
Conditions at: LFTH (HYERES/LE PALYVE, FR) observed 2330 UTC 18 January 2019
Temperature: 5.0°C (41°F)
Dewpoint: -1.0°C (30°F) [RH = 65%]
Pressure (altimeter): 29.94 inches Hg (1014.0 mb)
Winds: from the NW (310 degrees) at 6 MPH (5 knots; 2.6 m/s)
Visibility: 6 or more miles (10+ km)
Ceiling: ceiling and visibility are OK
Clouds: unknown
Weather: no significant weather observed at this time

METAR text: LFTH 182300Z AUTO 32006KT CAVOK 06/M02 Q1014 NOSIG
Conditions at: LFTH (HYERES/LE PALYVE, FR) observed 2300 UTC 18 January 2019
Temperature: 6.0°C (43°F)
Dewpoint: -2.0°C (28°F) [RH = 56%]
Pressure (altimeter): 29.94 inches Hg (1014.0 mb)
Winds: from the NW (320 degrees) at 7 MPH (6 knots; 3.1 m/s)
Visibility: 6 or more miles (10+ km)
Ceiling: ceiling and visibility are OK
Clouds: unknown
Weather: no significant weather observed at this time

METAR text: LFTH 182230Z AUTO 33007KT CAVOK 06/M02 Q1014 NOSIG
Conditions at: LFTH (HYERES/LE PALYVE, FR) observed 2230 UTC 18 January 2019
Temperature: 6.0°C (43°F)
Dewpoint: -2.0°C (28°F) [RH = 56%]
Pressure (altimeter): 29.94 inches Hg (1014.0 mb)
Winds: from the NNW (330 degrees) at 8 MPH (7 knots; 3.6 m/s)
Visibility: 6 or more miles (10+ km)
Ceiling: ceiling and visibility are OK
Clouds: unknown
Weather: no significant weather observed at this time

METAR text: LFTH 182200Z AUTO 33006KT CAVOK 06/M01 Q1014 NOSIG
Conditions at: LFTH (HYERES/LE PALYVE, FR) observed 2200 UTC 18 January 2019
Temperature: 6.0°C (43°F)
Dewpoint: -1.0°C (30°F) [RH = 61%]
Pressure (altimeter): 29.94 inches Hg (1014.0 mb)
Winds: from the NNW (330 degrees) at 7 MPH (6 knots; 3.1 m/s)
Visibility: 6 or more miles (10+ km)
Ceiling: ceiling and visibility are OK
Clouds: unknown
Weather: no significant weather observed at this time

METAR text: LFTH 182130Z AUTO 32007KT CAVOK 06/M01 Q1013 NOSIG
Conditions at: LFTH (HYERES/LE PALYVE, FR) observed 2130 UTC 18 January 2019
Temperature: 6.0°C (43°F)
Dewpoint: -1.0°C (30°F) [RH = 61%]
Pressure (altimeter): 29.91 inches Hg (1013.0 mb)
Winds: from the NW (320 degrees) at 8 MPH (7 knots; 3.6 m/s)
Visibility: 6 or more miles (10+ km)
Ceiling: ceiling and visibility are OK
Clouds: unknown
Weather: no significant weather observed at this time

METAR text: LFTH 182100Z AUTO 33007KT CAVOK 06/M01 Q1013 NOSIG
Conditions at: LFTH (HYERES/LE PALYVE, FR) observed 2100 UTC 18 January 2019
Temperature: 6.0°C (43°F)
Dewpoint: -1.0°C (30°F) [RH = 61%]
Pressure (altimeter): 29.91 inches Hg (1013.0 mb)
Winds: from the NNW (330 degrees) at 8 MPH (7 knots; 3.6 m/s)
Visibility: 6 or more miles (10+ km)
Ceiling: ceiling and visibility are OK
Clouds: unknown
Weather: no significant weather observed at this time

METAR text: LFTH 182030Z AUTO 34007KT CAVOK 06/M01 Q1013 NOSIG
Conditions at: LFTH (HYERES/LE PALYVE, FR) observed 2030 UTC 18 January 2019
Temperature: 6.0°C (43°F)
Dewpoint: -1.0°C (30°F) [RH = 61%]
Pressure (altimeter): 29.91 inches Hg (1013.0 mb)
Winds: from the NNW (340 degrees) at 8 MPH (7 knots; 3.6 m/s)
Visibility: 6 or more miles (10+ km)
Ceiling: ceiling and visibility are OK
Clouds: unknown
Weather: no significant weather observed at this time

METAR text: LFTH 182000Z AUTO 33006KT CAVOK 06/M00 Q1013 NOSIG
Conditions at: LFTH (HYERES/LE PALYVE, FR) observed 2000 UTC 18 January 2019
Temperature: 6.0°C (43°F)
Dewpoint: 0.0°C (32°F) [RH = 65%]
Pressure (altimeter): 29.91 inches Hg (1013.0 mb)
Winds: from the NNW (330 degrees) at 7 MPH (6 knots; 3.1 m/s)
Visibility: 6 or more miles (10+ km)
Ceiling: ceiling and visibility are OK
Clouds: unknown
Weather: no significant weather observed at this time

METAR text: LFTH 181930Z AUTO 31006KT CAVOK 07/M01 Q1013 NOSIG
Conditions at: LFTH (HYERES/LE PALYVE, FR) observed 1930 UTC 18 January 2019
Temperature: 7.0°C (45°F)
Dewpoint: -1.0°C (30°F) [RH = 57%]
Pressure (altimeter): 29.91 inches Hg (1013.0 mb)
Winds: from the NW (310 degrees) at 7 MPH (6 knots; 3.1 m/s)
Visibility: 6 or more miles (10+ km)
Ceiling: ceiling and visibility are OK
Clouds: unknown
Weather: no significant weather observed at this time

METAR text: LFTH 181900Z AUTO 27005KT CAVOK 07/M01 Q1013 NOSIG
Conditions at: LFTH (HYERES/LE PALYVE, FR) observed 1900 UTC 18 January 2019
Temperature: 7.0°C (45°F)
Dewpoint: -1.0°C (30°F) [RH = 57%]
Pressure (altimeter): 29.91 inches Hg (1013.0 mb)
Winds: from the W (270 degrees) at 6 MPH (5 knots; 2.6 m/s)
Visibility: 6 or more miles (10+ km)
Ceiling: ceiling and visibility are OK
Clouds: unknown
Weather: no significant weather observed at this time

METAR text: LFTH 181830Z AUTO 29004KT CAVOK 07/M00 Q1013 NOSIG
Conditions at: LFTH (HYERES/LE PALYVE, FR) observed 1830 UTC 18 January 2019
Temperature: 7.0°C (45°F)
Dewpoint: 0.0°C (32°F) [RH = 61%]
Pressure (altimeter): 29.91 inches Hg (1013.0 mb)
Winds: from the WNW (290 degrees) at 5 MPH (4 knots; 2.1 m/s)
Visibility: 6 or more miles (10+ km)
Ceiling: ceiling and visibility are OK
Clouds: unknown
Weather: no significant weather observed at this time

METAR text: LFTH 181800Z AUTO VRB03KT CAVOK 07/M00 Q1013 NOSIG
Conditions at: LFTH (HYERES/LE PALYVE, FR) observed 1800 UTC 18 January 2019
Temperature: 7.0°C (45°F)
Dewpoint: 0.0°C (32°F) [RH = 61%]
Pressure (altimeter): 29.91 inches Hg (1013.0 mb)
Winds: variable direction winds at 3 MPH (3 knots; 1.5 m/s)
Visibility: 6 or more miles (10+ km)
Ceiling: ceiling and visibility are OK
Clouds: unknown
Weather: no significant weather observed at this time

METAR text: LFTH 181730Z AUTO 32003KT CAVOK 06/M00 Q1013 NOSIG
Conditions at: LFTH (HYERES/LE PALYVE, FR) observed 1730 UTC 18 January 2019
Temperature: 6.0°C (43°F)
Dewpoint: 0.0°C (32°F) [RH = 65%]
Pressure (altimeter): 29.91 inches Hg (1013.0 mb)
Winds: from the NW (320 degrees) at 3 MPH (3 knots; 1.5 m/s)
Visibility: 6 or more miles (10+ km)
Ceiling: ceiling and visibility are OK
Clouds: unknown
Weather: no significant weather observed at this time

METAR text: LFTH 181700Z AUTO 26003KT 220V280 CAVOK 08/M00 Q1012 NOSIG
Conditions at: LFTH (HYERES/LE PALYVE, FR) observed 1700 UTC 18 January 2019
Temperature: 8.0°C (46°F)
Dewpoint: 0.0°C (32°F) [RH = 57%]
Pressure (altimeter): 29.88 inches Hg (1012.0 mb)
Winds: from the W (260 degrees) at 3 MPH (3 knots; 1.5 m/s)
Visibility: 6 or more miles (10+ km)
Ceiling: ceiling and visibility are OK
Clouds: unknown
Weather: no significant weather observed at this time

METAR text: LFTH 181630Z AUTO VRB03KT CAVOK 08/00 Q1012 NOSIG
Conditions at: LFTH (HYERES/LE PALYVE, FR) observed 1630 UTC 18 January 2019
Temperature: 8.0°C (46°F)
Dewpoint: 0.0°C (32°F) [RH = 57%]
Pressure (altimeter): 29.88 inches Hg (1012.0 mb)
Winds: variable direction winds at 3 MPH (3 knots; 1.5 m/s)
Visibility: 6 or more miles (10+ km)
Ceiling: ceiling and visibility are OK
Clouds: unknown
Weather: no significant weather observed at this time

METAR text: LFTH 181600Z AUTO 33003KT CAVOK 09/00 Q1012 NOSIG
Conditions at: LFTH (HYERES/LE PALYVE, FR) observed 1600 UTC 18 January 2019
Temperature: 9.0°C (48°F)
Dewpoint: 0.0°C (32°F) [RH = 53%]
Pressure (altimeter): 29.88 inches Hg (1012.0 mb)
Winds: from the NNW (330 degrees) at 3 MPH (3 knots; 1.5 m/s)
Visibility: 6 or more miles (10+ km)
Ceiling: ceiling and visibility are OK
Clouds: unknown
Weather: no significant weather observed at this time

METAR text: LFTH 181530Z AUTO 32003KT CAVOK 10/M00 Q1012 NOSIG
Conditions at: LFTH (HYERES/LE PALYVE, FR) observed 1530 UTC 18 January 2019
Temperature: 10.0°C (50°F)
Dewpoint: 0.0°C (32°F) [RH = 50%]
Pressure (altimeter): 29.88 inches Hg (1012.0 mb)
Winds: from the NW (320 degrees) at 3 MPH (3 knots; 1.5 m/s)
Visibility: 6 or more miles (10+ km)
Ceiling: ceiling and visibility are OK
Clouds: unknown
Weather: no significant weather observed at this time

METAR text: LFTH 181500Z AUTO 33005KT 290V020 CAVOK 12/M00 Q1012 NOSIG
Conditions at: LFTH (HYERES/LE PALYVE, FR) observed 1500 UTC 18 January 2019
Temperature: 12.0°C (54°F)
Dewpoint: 0.0°C (32°F) [RH = 44%]
Pressure (altimeter): 29.88 inches Hg (1012.0 mb)
Winds: from the NNW (330 degrees) at 6 MPH (5 knots; 2.6 m/s)
Visibility: 6 or more miles (10+ km)
Ceiling: ceiling and visibility are OK
Clouds: unknown
Weather: no significant weather observed at this time

METAR text: LFTH 181430Z AUTO 33005KT 290V360 CAVOK 12/M01 Q1012 NOSIG
Conditions at: LFTH (HYERES/LE PALYVE, FR) observed 1430 UTC 18 January 2019
Temperature: 12.0°C (54°F)
Dewpoint: -1.0°C (30°F) [RH = 40%]
Pressure (altimeter): 29.88 inches Hg (1012.0 mb)
Winds: from the NNW (330 degrees) at 6 MPH (5 knots; 2.6 m/s)
Visibility: 6 or more miles (10+ km)
Ceiling: ceiling and visibility are OK
Clouds: unknown
Weather: no significant weather observed at this time

METAR text: LFTH 181400Z AUTO 32005KT 290V360 CAVOK 11/M01 Q1012 NOSIG
Conditions at: LFTH (HYERES/LE PALYVE, FR) observed 1400 UTC 18 January 2019
Temperature: 11.0°C (52°F)
Dewpoint: -1.0°C (30°F) [RH = 43%]
Pressure (altimeter): 29.88 inches Hg (1012.0 mb)
Winds: from the NW (320 degrees) at 6 MPH (5 knots; 2.6 m/s)
Visibility: 6 or more miles (10+ km)
Ceiling: ceiling and visibility are OK
Clouds: unknown
Weather: no significant weather observed at this time

METAR text: LFTH 181330Z AUTO 34005KT 270V020 CAVOK 12/M01 Q1012 NOSIG
Conditions at: LFTH (HYERES/LE PALYVE, FR) observed 1330 UTC 18 January 2019
Temperature: 12.0°C (54°F)
Dewpoint: -1.0°C (30°F) [RH = 40%]
Pressure (altimeter): 29.88 inches Hg (1012.0 mb)
Winds: from the NNW (340 degrees) at 6 MPH (5 knots; 2.6 m/s)
Visibility: 6 or more miles (10+ km)
Ceiling: ceiling and visibility are OK
Clouds: unknown
Weather: no significant weather observed at this time

METAR text: LFTH 181300Z AUTO 36005KT 310V040 CAVOK 13/M01 Q1012 NOSIG
Conditions at: LFTH (HYERES/LE PALYVE, FR) observed 1300 UTC 18 January 2019
Temperature: 13.0°C (55°F)
Dewpoint: -1.0°C (30°F) [RH = 38%]
Pressure (altimeter): 29.88 inches Hg (1012.0 mb)
Winds: from the N (360 degrees) at 6 MPH (5 knots; 2.6 m/s)
Visibility: 6 or more miles (10+ km)
Ceiling: ceiling and visibility are OK
Clouds: unknown
Weather: no significant weather observed at this time

METAR text: LFTH 181230Z AUTO 36007KT 300V040 CAVOK 12/M00 Q1012 NOSIG
Conditions at: LFTH (HYERES/LE PALYVE, FR) observed 1230 UTC 18 January 2019
Temperature: 12.0°C (54°F)
Dewpoint: 0.0°C (32°F) [RH = 44%]
Pressure (altimeter): 29.88 inches Hg (1012.0 mb)
Winds: from the N (360 degrees) at 8 MPH (7 knots; 3.6 m/s)
Visibility: 6 or more miles (10+ km)
Ceiling: ceiling and visibility are OK
Clouds: unknown
Weather: no significant weather observed at this time

METAR text: LFTH 181200Z AUTO 32007KT 280V360 CAVOK 12/M01 Q1012 NOSIG
Conditions at: LFTH (HYERES/LE PALYVE, FR) observed 1200 UTC 18 January 2019
Temperature: 12.0°C (54°F)
Dewpoint: -1.0°C (30°F) [RH = 40%]
Pressure (altimeter): 29.88 inches Hg (1012.0 mb)
Winds: from the NW (320 degrees) at 8 MPH (7 knots; 3.6 m/s)
Visibility: 6 or more miles (10+ km)
Ceiling: ceiling and visibility are OK
Clouds: unknown
Weather: no significant weather observed at this time

METAR text: LFTH 181130Z AUTO 32009KT 290V350 CAVOK 12/M01 Q1012 NOSIG
Conditions at: LFTH (HYERES/LE PALYVE, FR) observed 1130 UTC 18 January 2019
Temperature: 12.0°C (54°F)
Dewpoint: -1.0°C (30°F) [RH = 40%]
Pressure (altimeter): 29.88 inches Hg (1012.0 mb)
Winds: from the NW (320 degrees) at 10 MPH (9 knots; 4.6 m/s)
Visibility: 6 or more miles (10+ km)
Ceiling: ceiling and visibility are OK
Clouds: unknown
Weather: no significant weather observed at this time

METAR text: LFTH 181100Z AUTO 32012KT 290V350 CAVOK 11/M02 Q1012 NOSIG
Conditions at: LFTH (HYERES/LE PALYVE, FR) observed 1100 UTC 18 January 2019
Temperature: 11.0°C (52°F)
Dewpoint: -2.0°C (28°F) [RH = 40%]
Pressure (altimeter): 29.88 inches Hg (1012.0 mb)
Winds: from the NW (320 degrees) at 14 MPH (12 knots; 6.2 m/s)
Visibility: 6 or more miles (10+ km)
Ceiling: ceiling and visibility are OK
Clouds: unknown
Weather: no significant weather observed at this time

METAR text: LFTH 181030Z AUTO 33010KT 300V010 CAVOK 11/M01 Q1013 NOSIG
Conditions at: LFTH (HYERES/LE PALYVE, FR) observed 1030 UTC 18 January 2019
Temperature: 11.0°C (52°F)
Dewpoint: -1.0°C (30°F) [RH = 43%]
Pressure (altimeter): 29.91 inches Hg (1013.0 mb)
Winds: from the NNW (330 degrees) at 12 MPH (10 knots; 5.1 m/s)
Visibility: 6 or more miles (10+ km)
Ceiling: ceiling and visibility are OK
Clouds: unknown
Weather: no significant weather observed at this time

METAR text: LFTH 181000Z AUTO 31010KT 290V350 CAVOK 11/M02 Q1013 NOSIG
Conditions at: LFTH (HYERES/LE PALYVE, FR) observed 1000 UTC 18 January 2019
Temperature: 11.0°C (52°F)
Dewpoint: -2.0°C (28°F) [RH = 40%]
Pressure (altimeter): 29.91 inches Hg (1013.0 mb)
Winds: from the NW (310 degrees) at 12 MPH (10 knots; 5.1 m/s)
Visibility: 6 or more miles (10+ km)
Ceiling: ceiling and visibility are OK
Clouds: unknown
Weather: no significant weather observed at this time

METAR text: LFTH 180930Z AUTO 31011KT 270V340 CAVOK 10/M02 Q1013 NOSIG
Conditions at: LFTH (HYERES/LE PALYVE, FR) observed 0930 UTC 18 January 2019
Temperature: 10.0°C (50°F)
Dewpoint: -2.0°C (28°F) [RH = 43%]
Pressure (altimeter): 29.91 inches Hg (1013.0 mb)
Winds: from the NW (310 degrees) at 13 MPH (11 knots; 5.7 m/s)
Visibility: 6 or more miles (10+ km)
Ceiling: ceiling and visibility are OK
Clouds: unknown
Weather: no significant weather observed at this time

METAR text: LFTH 180900Z AUTO 32007KT 290V010 CAVOK 09/M03 Q1012 NOSIG
Conditions at: LFTH (HYERES/LE PALYVE, FR) observed 0900 UTC 18 January 2019
Temperature: 9.0°C (48°F)
Dewpoint: -3.0°C (27°F) [RH = 43%]
Pressure (altimeter): 29.88 inches Hg (1012.0 mb)
Winds: from the NW (320 degrees) at 8 MPH (7 knots; 3.6 m/s)
Visibility: 6 or more miles (10+ km)
Ceiling: ceiling and visibility are OK
Clouds: unknown
Weather: no significant weather observed at this time

METAR text: LFTH 180830Z AUTO 31010KT 280V350 CAVOK 09/M03 Q1012 NOSIG
Conditions at: LFTH (HYERES/LE PALYVE, FR) observed 0830 UTC 18 January 2019
Temperature: 9.0°C (48°F)
Dewpoint: -3.0°C (27°F) [RH = 43%]
Pressure (altimeter): 29.88 inches Hg (1012.0 mb)
Winds: from the NW (310 degrees) at 12 MPH (10 knots; 5.1 m/s)
Visibility: 6 or more miles (10+ km)
Ceiling: ceiling and visibility are OK
Clouds: unknown
Weather: no significant weather observed at this time

METAR text: LFTH 180800Z AUTO 33009KT 290V010 CAVOK 08/M03 Q1012 NOSIG
Conditions at: LFTH (HYERES/LE PALYVE, FR) observed 0800 UTC 18 January 2019
Temperature: 8.0°C (46°F)
Dewpoint: -3.0°C (27°F) [RH = 46%]
Pressure (altimeter): 29.88 inches Hg (1012.0 mb)
Winds: from the NNW (330 degrees) at 10 MPH (9 knots; 4.6 m/s)
Visibility: 6 or more miles (10+ km)
Ceiling: ceiling and visibility are OK
Clouds: unknown
Weather: no significant weather observed at this time

METAR text: LFTH 180730Z AUTO VRB04KT CAVOK 07/M04 Q1012 NOSIG
Conditions at: LFTH (HYERES/LE PALYVE, FR) observed 0730 UTC 18 January 2019
Temperature: 7.0°C (45°F)
Dewpoint: -4.0°C (25°F) [RH = 45%]
Pressure (altimeter): 29.88 inches Hg (1012.0 mb)
Winds: variable direction winds at 5 MPH (4 knots; 2.1 m/s)
Visibility: 6 or more miles (10+ km)
Ceiling: ceiling and visibility are OK
Clouds: unknown
Weather: no significant weather observed at this time

METAR text: LFTH 180700Z AUTO 31007KT CAVOK 08/M04 Q1012 NOSIG
Conditions at: LFTH (HYERES/LE PALYVE, FR) observed 0700 UTC 18 January 2019
Temperature: 8.0°C (46°F)
Dewpoint: -4.0°C (25°F) [RH = 42%]
Pressure (altimeter): 29.88 inches Hg (1012.0 mb)
Winds: from the NW (310 degrees) at 8 MPH (7 knots; 3.6 m/s)
Visibility: 6 or more miles (10+ km)
Ceiling: ceiling and visibility are OK
Clouds: unknown
Weather: no significant weather observed at this time

METAR text: LFTH 180630Z AUTO 32011KT 290V350 CAVOK 07/M04 Q1011 NOSIG
Conditions at: LFTH (HYERES/LE PALYVE, FR) observed 0630 UTC 18 January 2019
Temperature: 7.0°C (45°F)
Dewpoint: -4.0°C (25°F) [RH = 45%]
Pressure (altimeter): 29.85 inches Hg (1011.0 mb)
Winds: from the NW (320 degrees) at 13 MPH (11 knots; 5.7 m/s)
Visibility: 6 or more miles (10+ km)
Ceiling: ceiling and visibility are OK
Clouds: unknown
Weather: no significant weather observed at this time

METAR text: LFTH 180600Z AUTO 31015KT CAVOK 08/M04 Q1011 TEMPO 31012G25KT
Conditions at: LFTH (HYERES/LE PALYVE, FR) observed 0600 UTC 18 January 2019
Temperature: 8.0°C (46°F)
Dewpoint: -4.0°C (25°F) [RH = 42%]
Pressure (altimeter): 29.85 inches Hg (1011.0 mb)
Winds: from the NW (310 degrees) at 17 MPH (15 knots; 7.7 m/s)
Visibility: 6 or more miles (10+ km)
Ceiling: ceiling and visibility are OK
Clouds: unknown
Weather: no significant weather observed at this time

METAR text: LFTH 180530Z AUTO 32013KT 290V350 CAVOK 07/M04 Q1011 NOSIG
Conditions at: LFTH (HYERES/LE PALYVE, FR) observed 0530 UTC 18 January 2019
Temperature: 7.0°C (45°F)
Dewpoint: -4.0°C (25°F) [RH = 45%]
Pressure (altimeter): 29.85 inches Hg (1011.0 mb)
Winds: from the NW (320 degrees) at 15 MPH (13 knots; 6.7 m/s)
Visibility: 6 or more miles (10+ km)
Ceiling: ceiling and visibility are OK
Clouds: unknown
Weather: no significant weather observed at this time

METAR text: LFTH 180500Z AUTO 31005KT 270V340 CAVOK 06/M04 Q1011 NOSIG
Conditions at: LFTH (HYERES/LE PALYVE, FR) observed 0500 UTC 18 January 2019
Temperature: 6.0°C (43°F)
Dewpoint: -4.0°C (25°F) [RH = 49%]
Pressure (altimeter): 29.85 inches Hg (1011.0 mb)
Winds: from the NW (310 degrees) at 6 MPH (5 knots; 2.6 m/s)
Visibility: 6 or more miles (10+ km)
Ceiling: ceiling and visibility are OK
Clouds: unknown
Weather: no significant weather observed at this time

METAR text: LFTH 180430Z AUTO VRB03KT CAVOK 07/M04 Q1011 NOSIG
Conditions at: LFTH (HYERES/LE PALYVE, FR) observed 0430 UTC 18 January 2019
Temperature: 7.0°C (45°F)
Dewpoint: -4.0°C (25°F) [RH = 45%]
Pressure (altimeter): 29.85 inches Hg (1011.0 mb)
Winds: variable direction winds at 3 MPH (3 knots; 1.5 m/s)
Visibility: 6 or more miles (10+ km)
Ceiling: ceiling and visibility are OK
Clouds: unknown
Weather: no significant weather observed at this time

METAR text: LFTH 180400Z AUTO 28005KT 260V320 CAVOK 06/M04 Q1011 NOSIG
Conditions at: LFTH (HYERES/LE PALYVE, FR) observed 0400 UTC 18 January 2019
Temperature: 6.0°C (43°F)
Dewpoint: -4.0°C (25°F) [RH = 49%]
Pressure (altimeter): 29.85 inches Hg (1011.0 mb)
Winds: from the W (280 degrees) at 6 MPH (5 knots; 2.6 m/s)
Visibility: 6 or more miles (10+ km)
Ceiling: ceiling and visibility are OK
Clouds: unknown
Weather: no significant weather observed at this time

METAR text: LFTH 180330Z AUTO 33010KT 290V350 CAVOK 07/M03 Q1011 NOSIG
Conditions at: LFTH (HYERES/LE PALYVE, FR) observed 0330 UTC 18 January 2019
Temperature: 7.0°C (45°F)
Dewpoint: -3.0°C (27°F) [RH = 49%]
Pressure (altimeter): 29.85 inches Hg (1011.0 mb)
Winds: from the NNW (330 degrees) at 12 MPH (10 knots; 5.1 m/s)
Visibility: 6 or more miles (10+ km)
Ceiling: ceiling and visibility are OK
Clouds: unknown
Weather: no significant weather observed at this time

METAR text: LFTH 180300Z AUTO 30008KT 270V330 CAVOK 08/M04 Q1011 NOSIG
Conditions at: LFTH (HYERES/LE PALYVE, FR) observed 0300 UTC 18 January 2019
Temperature: 8.0°C (46°F)
Dewpoint: -4.0°C (25°F) [RH = 42%]
Pressure (altimeter): 29.85 inches Hg (1011.0 mb)
Winds: from the WNW (300 degrees) at 9 MPH (8 knots; 4.1 m/s)
Visibility: 6 or more miles (10+ km)
Ceiling: ceiling and visibility are OK
Clouds: unknown
Weather: no significant weather observed at this time

METAR text: LFTH 180230Z AUTO 27009KT CAVOK 07/M04 Q1012 NOSIG
Conditions at: LFTH (HYERES/LE PALYVE, FR) observed 0230 UTC 18 January 2019
Temperature: 7.0°C (45°F)
Dewpoint: -4.0°C (25°F) [RH = 45%]
Pressure (altimeter): 29.88 inches Hg (1012.0 mb)
Winds: from the W (270 degrees) at 10 MPH (9 knots; 4.6 m/s)
Visibility: 6 or more miles (10+ km)
Ceiling: ceiling and visibility are OK
Clouds: unknown
Weather: no significant weather observed at this time

METAR text: LFTH 180200Z AUTO 32011KT 290V350 CAVOK 08/M02 Q1012 TEMPO 31015G25KT
Conditions at: LFTH (HYERES/LE PALYVE, FR) observed 0200 UTC 18 January 2019
Temperature: 8.0°C (46°F)
Dewpoint: -2.0°C (28°F) [RH = 49%]
Pressure (altimeter): 29.88 inches Hg (1012.0 mb)
Winds: from the NW (320 degrees) at 13 MPH (11 knots; 5.7 m/s)
Visibility: 6 or more miles (10+ km)
Ceiling: ceiling and visibility are OK
Clouds: unknown
Weather: no significant weather observed at this time

METAR text: LFTH 180130Z AUTO 31012KT CAVOK 08/M02 Q1012 TEMPO 31015G25KT
Conditions at: LFTH (HYERES/LE PALYVE, FR) observed 0130 UTC 18 January 2019
Temperature: 8.0°C (46°F)
Dewpoint: -2.0°C (28°F) [RH = 49%]
Pressure (altimeter): 29.88 inches Hg (1012.0 mb)
Winds: from the NW (310 degrees) at 14 MPH (12 knots; 6.2 m/s)
Visibility: 6 or more miles (10+ km)
Ceiling: ceiling and visibility are OK
Clouds: unknown
Weather: no significant weather observed at this time

METAR text: LFTH 180100Z AUTO 28009KT CAVOK 09/M02 Q1012 TEMPO 31015G25KT
Conditions at: LFTH (HYERES/LE PALYVE, FR) observed 0100 UTC 18 January 2019
Temperature: 9.0°C (48°F)
Dewpoint: -2.0°C (28°F) [RH = 46%]
Pressure (altimeter): 29.88 inches Hg (1012.0 mb)
Winds: from the W (280 degrees) at 10 MPH (9 knots; 4.6 m/s)
Visibility: 6 or more miles (10+ km)
Ceiling: ceiling and visibility are OK
Clouds: unknown
Weather: no significant weather observed at this time

METAR text: LFTH 180030Z AUTO 29008KT CAVOK 09/M02 Q1013 TEMPO 31015G25KT
Conditions at: LFTH (HYERES/LE PALYVE, FR) observed 0030 UTC 18 January 2019
Temperature: 9.0°C (48°F)
Dewpoint: -2.0°C (28°F) [RH = 46%]
Pressure (altimeter): 29.91 inches Hg (1013.0 mb)
Winds: from the WNW (290 degrees) at 9 MPH (8 knots; 4.1 m/s)
Visibility: 6 or more miles (10+ km)
Ceiling: ceiling and visibility are OK
Clouds: unknown
Weather: no significant weather observed at this time

Forecast for: LFTH (HYERES/LE PALYVE, FR)
Text: TAF LFTH 190800Z 1909/2009 08010KT 9999 BKN030
Forecast period: 0900 UTC 19 January 2019 to 0900 UTC 20 January 2019
Forecast type: FROM: standard forecast or significant change
Winds: from the E (80 degrees) at 12 MPH (10 knots; 5.1 m/s)
Visibility: 6 or more miles 10+ km)
Ceiling: 3000 feet AGL
Clouds: broken clouds at 3000 feet AGL
Weather: no significant weather forecast for this period
Text: TEMPO 1911/2009 SHRA
Forecast period: 1100 UTC 19 January 2019 to 0900 UTC 20 January 2019
Forecast type: TEMPORARY: The following changes expected for less than half the time period
Visibility: missing
Ceiling: unknown
Clouds: missing
Weather: SHRA  (rain showers)